Aviation Digital Data Service (ADDS)

Output produced by TAFs form (0105 UTC 27 July 2016)
found at http://www.aviationweather.gov/adds/tafs/
 
TAF KDOV 270000Z 2700/2806 27006KT 9999 SCT150 QNH2987INS 
     BECMG 2705/2706 23006KT 9999 SCT030 BKN040 QNH2990INS 
     BECMG 2717/2718 16006KT 9000 -SHRA SCT030 BKN040 QNH2990INS 
     BECMG 2804/2805 15006KT 9999 NSW FEW020 BKN030 QNH2990INS TX31/2718Z TN25/2709Z